createdAt,value
2019-02-07T00:00:58.297Z,354.70
2019-02-07T00:04:02.266Z,361.23
2019-02-07T00:07:06.243Z,273.80
2019-02-07T00:10:10.764Z,214.40
2019-02-07T00:13:14.570Z,351.80
2019-02-07T00:16:18.493Z,300.23
2019-02-07T00:19:22.305Z,312.00
2019-02-07T00:22:26.175Z,427.87
2019-02-07T00:25:30.076Z,320.60
2019-02-07T00:28:34.044Z,242.13
2019-02-07T00:31:37.934Z,291.67
2019-02-07T00:34:41.835Z,205.00
2019-02-07T00:37:46.003Z,409.63
2019-02-07T00:40:49.881Z,347.77
2019-02-07T00:43:53.718Z,237.57
2019-02-07T00:46:57.578Z,386.77
2019-02-07T00:50:01.387Z,377.83
2019-02-07T00:53:05.337Z,297.60
2019-02-07T00:56:09.256Z,217.87
2019-02-07T00:59:13.084Z,388.40
2019-02-07T01:02:16.994Z,246.30
2019-02-07T01:05:22.139Z,173.47
2019-02-07T01:08:26.113Z,240.07
2019-02-07T01:11:29.926Z,137.53
2019-02-07T01:14:33.902Z,189.03
2019-02-07T01:17:37.881Z,123.07
2019-02-07T01:20:41.845Z,133.30
2019-02-07T01:23:45.781Z,122.90
2019-02-07T01:26:49.714Z,148.63
2019-02-07T01:29:53.662Z,123.97
2019-02-07T01:32:57.619Z,123.67
2019-02-07T01:36:01.447Z,138.67
2019-02-07T01:39:08.405Z,107.93
2019-02-07T01:42:12.243Z,105.53
2019-02-07T01:45:18.639Z,95.03
2019-02-07T01:48:22.620Z,98.97
2019-02-07T01:51:26.611Z,100.13
2019-02-07T01:54:30.486Z,148.70
2019-02-07T01:57:34.362Z,72.23
2019-02-07T02:00:38.266Z,120.47
2019-02-07T02:03:42.133Z,167.63
2019-02-07T02:06:45.939Z,105.50
2019-02-07T02:09:49.961Z,91.93
2019-02-07T02:12:54.167Z,148.40
2019-02-07T02:15:58.118Z,115.50
2019-02-07T02:19:02.043Z,133.90
2019-02-07T02:22:06.388Z,93.83
2019-02-07T02:25:10.824Z,126.93
2019-02-07T02:28:14.689Z,133.37
2019-02-07T02:31:18.942Z,96.47
2019-02-07T02:34:22.740Z,116.30
2019-02-07T02:37:26.741Z,116.03
2019-02-07T02:40:30.994Z,118.53
2019-02-07T02:43:34.841Z,139.20
2019-02-07T02:46:38.811Z,97.70
2019-02-07T02:49:43.082Z,127.53
2019-02-07T02:52:47.099Z,99.97
2019-02-07T02:55:52.067Z,87.43
2019-02-07T02:58:56.138Z,82.37
2019-02-07T03:02:37.155Z,77.10
2019-02-07T03:05:55.040Z,71.33
2019-02-07T03:09:17.465Z,73.70
2019-02-07T03:12:35.526Z,61.70
2019-02-07T03:15:58.427Z,60.27
2019-02-07T03:19:19.963Z,63.17
2019-02-07T03:22:42.732Z,54.57
2019-02-07T03:26:05.633Z,50.63
2019-02-07T03:29:34.717Z,51.97
2019-02-07T03:32:55.179Z,44.03
2019-02-07T03:36:30.135Z,44.57
2019-02-07T03:39:59.375Z,41.37
2019-02-07T03:43:12.954Z,45.23
2019-02-07T03:46:41.829Z,41.93
2019-02-07T03:50:11.479Z,40.73
2019-02-07T03:53:35.868Z,45.40
2019-02-07T03:56:57.751Z,47.03
2019-02-07T04:00:20.671Z,44.20
2019-02-07T04:03:46.699Z,45.13
2019-02-07T04:07:15.188Z,48.00
2019-02-07T04:10:56.488Z,49.67
2019-02-07T04:14:13.125Z,44.73
2019-02-07T04:17:38.861Z,42.67
2019-02-07T04:21:00.662Z,39.83
2019-02-07T04:24:13.427Z,50.17
2019-02-07T04:27:45.834Z,45.43
2019-02-07T04:31:08.180Z,47.27
2019-02-07T04:34:36.431Z,45.87
2019-02-07T04:38:08.701Z,46.00
2019-02-07T04:41:26.546Z,44.40
2019-02-07T04:44:49.637Z,45.77
2019-02-07T04:48:06.854Z,52.83
2019-02-07T04:51:27.623Z,45.10
2019-02-07T04:54:56.226Z,45.83
2019-02-07T04:58:18.297Z,46.27
2019-02-07T05:01:34.806Z,47.87
2019-02-07T05:05:03.680Z,46.17
2019-02-07T05:08:26.604Z,50.07
2019-02-07T05:11:49.492Z,49.93
2019-02-07T05:15:30.703Z,47.70
2019-02-07T05:18:46.372Z,50.70
2019-02-07T05:22:08.014Z,48.10
2019-02-07T05:25:32.498Z,48.93
2019-02-07T05:29:07.920Z,47.27
2019-02-07T05:32:20.569Z,47.23
2019-02-07T05:35:42.446Z,45.97
2019-02-07T05:39:20.647Z,47.87
2019-02-07T05:42:43.505Z,42.97
2019-02-07T05:46:07.652Z,41.67
2019-02-07T05:49:42.364Z,42.90
2019-02-07T05:53:17.404Z,48.07
2019-02-07T05:56:29.544Z,42.23
2019-02-07T06:00:04.482Z,41.87
2019-02-07T06:03:30.269Z,37.83
2019-02-07T06:06:48.399Z,41.00
2019-02-07T06:10:10.875Z,39.70
2019-02-07T06:13:33.743Z,44.07
2019-02-07T06:17:02.649Z,42.50
2019-02-07T06:20:12.558Z,43.30
2019-02-07T06:23:30.734Z,40.93
2019-02-07T06:26:54.867Z,43.37
2019-02-07T06:30:12.635Z,43.60
2019-02-07T06:33:26.346Z,40.07
2019-02-07T06:36:48.335Z,44.60
2019-02-07T06:40:04.938Z,43.70
2019-02-07T06:43:20.723Z,41.33
2019-02-07T06:46:42.455Z,46.47
2019-02-07T06:49:58.699Z,43.00
2019-02-07T06:53:27.333Z,46.00
2019-02-07T06:57:08.828Z,46.63
2019-02-07T07:00:38.517Z,49.63
2019-02-07T07:04:16.631Z,51.30
2019-02-07T07:07:30.980Z,55.17
2019-02-07T07:11:00.348Z,58.40
2019-02-07T07:14:12.884Z,55.83
2019-02-07T07:17:27.866Z,58.73
2019-02-07T07:20:53.713Z,62.07
2019-02-07T07:24:15.189Z,60.47
2019-02-07T07:27:41.186Z,63.63
2019-02-07T07:31:13.617Z,59.60
2019-02-07T07:34:39.764Z,58.83
2019-02-07T07:37:55.252Z,61.77
2019-02-07T07:41:17.191Z,63.10
2019-02-07T07:44:38.723Z,60.73
2019-02-07T07:48:00.098Z,57.40
2019-02-07T07:51:28.969Z,57.77
2019-02-07T07:54:50.686Z,53.23
2019-02-07T07:58:13.563Z,61.43
2019-02-07T08:01:40.553Z,54.60
2019-02-07T08:04:57.683Z,57.83
2019-02-07T08:08:19.441Z,52.70
2019-02-07T08:11:57.664Z,55.50
2019-02-07T08:15:08.487Z,52.57
2019-02-07T08:18:37.179Z,51.07
2019-02-07T08:21:55.211Z,51.30
2019-02-07T08:25:17.202Z,50.40
2019-02-07T08:28:42.799Z,43.53
2019-02-07T08:32:11.928Z,46.03
2019-02-07T08:35:33.658Z,45.60
2019-02-07T08:38:59.736Z,44.50
2019-02-07T08:42:32.841Z,47.37
2019-02-07T08:46:05.024Z,43.47
2019-02-07T08:49:34.729Z,48.77
2019-02-07T08:53:09.589Z,46.33
2019-02-07T08:56:31.117Z,45.90
2019-02-07T08:59:52.774Z,39.77
2019-02-07T09:03:14.395Z,44.27
2019-02-07T09:06:40.146Z,40.83
2019-02-07T09:10:08.928Z,43.10
2019-02-07T09:13:22.399Z,46.93
2019-02-07T09:16:45.943Z,45.33
2019-02-07T09:20:09.407Z,41.13
2019-02-07T09:23:38.068Z,40.77
2019-02-07T09:26:59.786Z,40.93
2019-02-07T09:30:23.369Z,40.73
2019-02-07T09:33:39.594Z,36.50
2019-02-07T09:37:02.431Z,41.30
2019-02-07T09:40:29.612Z,40.93
2019-02-07T09:43:49.612Z,39.43
2019-02-07T09:47:11.410Z,32.73
2019-02-07T09:50:27.219Z,34.53
2019-02-07T09:53:39.436Z,36.13
2019-02-07T09:57:04.460Z,37.63
2019-02-07T10:00:32.648Z,36.60
2019-02-07T10:04:00.688Z,34.60
2019-02-07T10:07:15.151Z,36.60
2019-02-07T10:10:30.451Z,36.13
2019-02-07T10:13:51.951Z,38.23
2019-02-07T10:17:13.946Z,36.60
2019-02-07T10:20:40.840Z,36.10
2019-02-07T10:24:03.907Z,37.17
2019-02-07T10:27:35.889Z,35.33
2019-02-07T10:30:59.839Z,36.83
2019-02-07T10:34:21.779Z,37.20
2019-02-07T10:37:51.192Z,41.30
2019-02-07T10:41:06.053Z,32.90
2019-02-07T10:44:21.232Z,35.70
2019-02-07T10:47:37.631Z,38.03
2019-02-07T10:50:59.148Z,31.07
2019-02-07T10:54:25.097Z,33.87
2019-02-07T10:57:48.267Z,31.10
2019-02-07T11:01:14.745Z,32.90
2019-02-07T11:04:41.115Z,33.57
2019-02-07T11:07:58.446Z,37.00
2019-02-07T11:11:20.208Z,31.33
2019-02-07T11:14:46.229Z,31.47
2019-02-07T11:18:01.482Z,29.23
2019-02-07T11:21:18.878Z,29.80
2019-02-07T11:24:40.120Z,33.00
2019-02-07T11:28:10.719Z,26.47
2019-02-07T11:31:22.250Z,27.83
2019-02-07T11:34:47.167Z,30.07
2019-02-07T11:37:59.450Z,31.27
2019-02-07T11:41:35.972Z,30.57
2019-02-07T11:45:07.780Z,31.00
2019-02-07T11:48:20.238Z,32.53
2019-02-07T11:51:47.353Z,27.93
2019-02-07T11:55:13.225Z,19.13
2019-02-07T11:58:30.309Z,24.90
2019-02-07T12:01:51.898Z,26.10
2019-02-07T12:05:13.638Z,20.07
2019-02-07T12:08:28.728Z,20.10
2019-02-07T12:11:48.716Z,13.93
2019-02-07T12:15:01.642Z,13.60
2019-02-07T12:18:20.898Z,14.43
2019-02-07T12:21:42.500Z,11.57
2019-02-07T12:25:04.278Z,9.60
2019-02-07T12:28:27.159Z,12.40
2019-02-07T12:31:40.849Z,10.33
2019-02-07T12:35:02.530Z,16.53
2019-02-07T12:38:30.056Z,22.07
2019-02-07T12:41:47.776Z,10.00
2019-02-07T12:45:05.115Z,7.60
2019-02-07T12:48:21.036Z,16.17
2019-02-07T12:51:36.166Z,8.13
2019-02-07T12:55:01.909Z,12.63
2019-02-07T12:58:23.643Z,10.17
2019-02-07T13:01:46.607Z,14.60
2019-02-07T13:05:08.094Z,16.37
2019-02-07T13:08:37.188Z,15.37
2019-02-07T13:11:51.727Z,11.93
2019-02-07T13:15:03.299Z,14.17
2019-02-07T13:18:35.119Z,12.90
2019-02-07T13:22:04.159Z,11.37
2019-02-07T13:25:30.868Z,12.67
2019-02-07T13:28:53.866Z,15.33
2019-02-07T13:32:15.676Z,17.53
2019-02-07T13:35:44.455Z,12.03
2019-02-07T13:38:56.559Z,11.97
2019-02-07T13:42:14.615Z,13.43
2019-02-07T13:45:39.286Z,10.43
2019-02-07T13:49:05.146Z,18.87
2019-02-07T13:52:28.135Z,13.97
2019-02-07T13:56:00.392Z,16.37
2019-02-07T13:59:38.912Z,11.47
2019-02-07T14:02:58.049Z,16.00
2019-02-07T14:06:22.215Z,13.17
2019-02-07T14:09:57.162Z,17.03
2019-02-07T14:13:18.941Z,14.77
2019-02-07T14:16:33.899Z,13.33
2019-02-07T14:20:04.061Z,15.27
2019-02-07T14:23:30.367Z,13.83
2019-02-07T14:26:52.060Z,9.70
2019-02-07T14:30:21.114Z,15.43
2019-02-07T14:33:42.856Z,8.07
2019-02-07T14:37:11.747Z,15.70
2019-02-07T14:40:32.675Z,14.67
2019-02-07T14:44:01.369Z,12.60
2019-02-07T14:47:05.376Z,16.37
2019-02-07T14:50:14.871Z,13.30
2019-02-07T14:53:15.373Z,9.60
2019-02-07T14:56:19.273Z,11.07
2019-02-07T14:59:23.484Z,15.80
2019-02-07T15:02:27.304Z,13.50
2019-02-07T15:05:31.568Z,13.90
2019-02-07T15:08:35.847Z,9.73
2019-02-07T15:11:39.715Z,10.53
2019-02-07T15:14:43.593Z,10.80
2019-02-07T15:17:47.983Z,14.43
2019-02-07T15:20:51.867Z,15.40
2019-02-07T15:23:55.708Z,11.43
2019-02-07T15:26:59.874Z,11.47
2019-02-07T15:30:05.296Z,8.83
2019-02-07T15:33:09.167Z,11.00
2019-02-07T15:36:13.508Z,19.43
2019-02-07T15:39:19.133Z,12.73
2019-02-07T15:42:23.118Z,14.33
2019-02-07T15:45:27.943Z,20.10
2019-02-07T15:48:31.963Z,11.83
2019-02-07T15:51:35.803Z,17.03
2019-02-07T15:54:40.065Z,13.93
2019-02-07T15:57:44.052Z,17.50
2019-02-07T16:00:57.579Z,18.00
2019-02-07T16:04:14.020Z,11.43
2019-02-07T16:07:18.266Z,14.93
2019-02-07T16:10:22.261Z,15.50
2019-02-07T16:13:26.207Z,11.37
2019-02-07T16:16:30.196Z,10.43
2019-02-07T16:19:35.022Z,13.17
2019-02-07T16:22:38.853Z,16.57
2019-02-07T16:25:42.668Z,14.37
2019-02-07T16:28:46.619Z,17.57
2019-02-07T16:31:50.502Z,13.97
2019-02-07T16:34:54.569Z,15.77
2019-02-07T16:37:58.508Z,10.67
2019-02-07T16:41:02.482Z,12.27
2019-02-07T16:44:06.474Z,12.67
2019-02-07T16:47:10.328Z,10.70
2019-02-07T16:50:16.130Z,11.23
2019-02-07T16:53:20.024Z,13.30
2019-02-07T16:56:23.932Z,15.23
2019-02-07T16:59:27.835Z,8.60
2019-02-07T17:02:31.647Z,10.87
2019-02-07T17:05:37.784Z,11.37
2019-02-07T17:08:41.236Z,6.67
2019-02-07T17:11:45.221Z,8.93
2019-02-07T17:14:49.022Z,12.63
2019-02-07T17:17:52.927Z,15.70
2019-02-07T17:20:56.756Z,11.43
2019-02-07T17:24:00.566Z,14.70
2019-02-07T17:27:04.488Z,12.07
2019-02-07T17:30:13.105Z,9.47
2019-02-07T17:33:17.014Z,9.13
2019-02-07T17:36:20.829Z,10.07
2019-02-07T17:39:24.699Z,8.10
2019-02-07T17:42:28.697Z,9.77
2019-02-07T17:45:32.658Z,7.33
2019-02-07T17:48:36.570Z,6.97
2019-02-07T17:51:40.549Z,12.87
2019-02-07T17:54:44.447Z,6.13
2019-02-07T17:57:48.460Z,13.73
2019-02-07T18:01:01.095Z,13.23
2019-02-07T18:04:05.293Z,12.60
2019-02-07T18:07:09.591Z,10.77
2019-02-07T18:10:13.885Z,10.67
2019-02-07T18:13:17.803Z,10.13
2019-02-07T18:16:21.673Z,12.23
2019-02-07T18:19:25.871Z,6.80
2019-02-07T18:22:29.758Z,10.43
2019-02-07T18:25:33.741Z,11.47
2019-02-07T18:28:38.065Z,9.80
2019-02-07T18:31:42.064Z,9.30
2019-02-07T18:34:45.986Z,7.20
2019-02-07T18:37:51.525Z,6.47
2019-02-07T18:40:55.392Z,4.27
2019-02-07T18:43:59.249Z,4.20
2019-02-07T18:47:03.467Z,8.33
2019-02-07T18:50:10.472Z,9.87
2019-02-07T18:53:14.446Z,11.43
2019-02-07T18:56:18.817Z,11.93
2019-02-07T18:59:22.764Z,11.33
2019-02-07T19:02:26.693Z,10.93
2019-02-07T19:05:30.989Z,11.73
2019-02-07T19:08:34.907Z,12.93
2019-02-07T19:11:38.829Z,10.87
2019-02-07T19:14:43.219Z,13.20
2019-02-07T19:17:47.106Z,8.80
2019-02-07T19:20:50.928Z,11.70
2019-02-07T19:23:55.178Z,15.73
2019-02-07T19:26:59.076Z,12.33
2019-02-07T19:30:03.070Z,9.40
2019-02-07T19:33:07.362Z,14.50
2019-02-07T19:36:11.269Z,9.87
2019-02-07T19:39:15.241Z,7.10
2019-02-07T19:42:19.141Z,10.43
2019-02-07T19:45:23.208Z,6.67
2019-02-07T19:48:27.035Z,14.20
2019-02-07T19:51:31.007Z,19.57
2019-02-07T19:54:34.865Z,13.90
2019-02-07T19:57:38.713Z,10.97
2019-02-07T20:00:42.691Z,19.90
2019-02-07T20:03:46.598Z,18.83
2019-02-07T20:06:50.420Z,14.07
2019-02-07T20:09:54.264Z,9.30
2019-02-07T20:12:58.292Z,13.07
2019-02-07T20:16:02.211Z,6.80
2019-02-07T20:19:06.193Z,18.77
2019-02-07T20:22:19.874Z,24.33
2019-02-07T20:25:15.991Z,22.03
2019-02-07T20:28:19.964Z,20.67
2019-02-07T20:31:23.785Z,20.77
2019-02-07T20:34:27.657Z,19.70
2019-02-07T20:37:31.471Z,25.37
2019-02-07T20:40:35.558Z,16.70
2019-02-07T20:43:39.717Z,20.40
2019-02-07T20:46:43.614Z,27.50
2019-02-07T20:49:47.435Z,21.40
2019-02-07T20:52:52.358Z,32.73
2019-02-07T20:55:56.329Z,28.23
2019-02-07T20:59:00.174Z,32.80
2019-02-07T21:02:04.643Z,28.07
2019-02-07T21:05:10.047Z,24.83
2019-02-07T21:08:14.545Z,18.80
2019-02-07T21:11:18.468Z,28.73
2019-02-07T21:14:22.291Z,30.07
2019-02-07T21:17:26.217Z,31.43
2019-02-07T21:20:30.417Z,14.60
2019-02-07T21:23:34.261Z,26.10
2019-02-07T21:26:38.114Z,24.27
2019-02-07T21:29:42.096Z,28.97
2019-02-07T21:32:45.975Z,21.93
2019-02-07T21:35:49.907Z,20.90
2019-02-07T21:38:53.716Z,19.47
2019-02-07T21:41:57.542Z,16.27
2019-02-07T21:45:01.520Z,28.90
2019-02-07T21:48:08.567Z,24.97
2019-02-07T21:51:12.458Z,28.70
2019-02-07T21:54:16.655Z,24.73
2019-02-07T21:57:20.530Z,27.37
2019-02-07T22:00:30.457Z,36.30
2019-02-07T22:03:34.433Z,29.17
2019-02-07T22:06:38.339Z,24.80
2019-02-07T22:09:42.267Z,16.60
2019-02-07T22:12:46.501Z,19.27
2019-02-07T22:15:50.332Z,27.87
2019-02-07T22:18:54.175Z,28.17
2019-02-07T22:21:58.004Z,33.93
2019-02-07T22:25:01.962Z,25.97
2019-02-07T22:28:06.732Z,40.93
2019-02-07T22:31:10.575Z,21.20
2019-02-07T22:34:14.456Z,21.27
2019-02-07T22:37:18.458Z,22.40
2019-02-07T22:40:23.051Z,21.37
2019-02-07T22:43:26.878Z,25.07
2019-02-07T22:46:30.697Z,26.80
2019-02-07T22:49:34.558Z,28.43
2019-02-07T22:52:38.543Z,16.97
2019-02-07T22:55:42.357Z,18.37
2019-02-07T22:58:46.134Z,24.57
2019-02-07T23:01:55.094Z,26.43
2019-02-07T23:04:58.988Z,27.10
2019-02-07T23:08:02.917Z,22.93
2019-02-07T23:11:08.898Z,20.33
2019-02-07T23:14:13.378Z,16.93
2019-02-07T23:17:17.281Z,21.97
2019-02-07T23:20:21.624Z,17.43
2019-02-07T23:23:25.608Z,38.93
2019-02-07T23:26:29.516Z,34.97
2019-02-07T23:29:33.355Z,23.53
2019-02-07T23:32:37.305Z,25.37
2019-02-07T23:35:41.147Z,29.30
2019-02-07T23:38:45.005Z,20.80
2019-02-07T23:41:48.850Z,21.13
2019-02-07T23:44:52.685Z,24.97
2019-02-07T23:47:56.714Z,30.10
2019-02-07T23:51:00.690Z,27.27
2019-02-07T23:54:05.410Z,31.20
2019-02-07T23:57:09.406Z,23.23
